Vremea acum in Targu Mures - Romania

Vrei sa afli care e starea vremii acum in Mures - Romania? Dorim sa iti furnizam starea vremii pentru Mures - Romania. Starea vremii Mures - Romania pentru astazi.

Vremea acum in Targu Mures

Temperatura: 14 °C

Se simte ca: 14 °C
Innorat: 25 %
Precipitatii: 0 %
Presiune atmosferica: 1017 hPa
Umiditate: 63%
Vizibilitate: 8 km
Vantul bate din N cu 0 km/h

Evolutia vremii in Targu Mures pe ore

Ora: 19:00
Parțial noros
Temperatura: 16.1°C
Sansa de precipitatii: 0%
Ora Descriere Temp Se simte Precipitatii Umiditate Vant
00:00Parțial noros11.9°11.4°0%66%ESE 6.8 KM/H
01:00Parțial noros11.5°11.1°0%67%ESE 6.5 KM/H
02:00Parțial noros11.2°10.8°0%68%ESE 6.1 KM/H
03:00Parțial noros11°10.7°0%69%ESE 5.4 KM/H
04:00Parțial noros10.7°10.6°0%70%ESE 5 KM/H
05:00Parțial noros10.5°10.5°0%72%ESE 4.3 KM/H
06:00Parțial noros11.2°11.4°0%70%ESE 4 KM/H
07:00Parțial noros11.9°12.2°0%68%ESE 4 KM/H
08:00Parțial noros12.6°13.1°0%66%SE 3.6 KM/H
09:00Parțial noros14.8°15.1°0%59%SE 5 KM/H
10:00Parțial noros16.9°17.1°0%52%SSE 6.1 KM/H
11:00Parțial noros19.1°19.1°0%45%SSE 7.6 KM/H
12:00Parțial noros20.4°20.4°0%41%SSE 6.5 KM/H
13:00Parțial noros21.8°21.8°0%38%SSE 5.8 KM/H
14:00Parțial noros23.1°24°0%34%SSE 4.7 KM/H
15:00Parțial noros21.8°21.8°0%37%SSW 4.3 KM/H
16:00Parțial noros20.5°20.5°0%40%W 3.6 KM/H
17:00Parțial noros19.2°19.2°0%43%NW 3.2 KM/H
18:00Parțial noros17.7°17.8°0%47%SW 4 KM/H
19:00Parțial noros16.1°16.3°0%50%SE 4.7 KM/H
20:00Parțial noros14.6°14.9°0%53%NE 5.4 KM/H
21:00Parțial noros13.9°14.1°0%55%ENE 4.7 KM/H
22:00Parțial noros13.2°13.3°0%57%E 3.6 KM/H
23:00Parțial noros12.5°12.5°0%59%SE 2.9 KM/H